createdAt,value
2023-11-08T00:00:14.548Z,100987.34
2023-11-08T00:02:41.741Z,101007.19
2023-11-08T00:05:08.871Z,101004.28
2023-11-08T00:07:41.230Z,100999.97
2023-11-08T00:10:13.686Z,101007.63
2023-11-08T00:12:40.842Z,101006.84
2023-11-08T00:15:10.562Z,101009.88
2023-11-08T00:17:37.499Z,101015.63
2023-11-08T00:20:09.403Z,101023.19
2023-11-08T00:22:40.829Z,101023.81
2023-11-08T00:25:07.728Z,101027.00
2023-11-08T00:27:39.445Z,101008.13
2023-11-08T00:30:06.796Z,101002.06
2023-11-08T00:32:33.371Z,100991.03
2023-11-08T00:35:03.085Z,100990.19
2023-11-08T00:37:32.380Z,100989.56
2023-11-08T00:39:59.295Z,100999.81
2023-11-08T00:42:30.624Z,101006.69
2023-11-08T00:44:59.390Z,101011.19
2023-11-08T00:47:25.972Z,101014.66
2023-11-08T00:49:55.073Z,101025.72
2023-11-08T00:52:24.463Z,101034.03
2023-11-08T00:54:55.076Z,101048.91
2023-11-08T00:57:22.172Z,101056.25
2023-11-08T00:59:48.687Z,101059.31
2023-11-08T01:02:15.248Z,101040.44
2023-11-08T01:04:42.950Z,101031.16
2023-11-08T01:07:10.943Z,101021.88
2023-11-08T01:09:39.847Z,101025.56
2023-11-08T01:12:09.205Z,101022.38
2023-11-08T01:14:35.817Z,101017.41
2023-11-08T01:17:05.186Z,101025.09
2023-11-08T01:19:32.429Z,101029.41
2023-11-08T01:22:01.213Z,101043.00
2023-11-08T01:24:30.260Z,101051.47
2023-11-08T01:26:56.954Z,101061.72
2023-11-08T01:29:23.644Z,101053.25
2023-11-08T01:31:52.450Z,101052.28
2023-11-08T01:34:22.001Z,101042.22
2023-11-08T01:36:50.781Z,101044.78
2023-11-08T01:39:19.860Z,101051.63
2023-11-08T01:41:49.818Z,101054.34
2023-11-08T01:44:20.335Z,101067.13
2023-11-08T01:46:57.266Z,101070.50
2023-11-08T01:49:29.467Z,101072.25
2023-11-08T01:52:01.398Z,101073.06
2023-11-08T01:54:29.101Z,101071.28
2023-11-08T01:56:56.358Z,101066.97
2023-11-08T01:59:27.194Z,101062.50
2023-11-08T02:02:00.450Z,101051.31
2023-11-08T02:04:35.486Z,101035.00
2023-11-08T02:07:03.047Z,101038.34
2023-11-08T02:09:31.042Z,101048.75
2023-11-08T02:12:02.458Z,101049.22
2023-11-08T02:14:29.733Z,101044.44
2023-11-08T02:16:56.409Z,101051.63
2023-11-08T02:19:23.251Z,101043.47
2023-11-08T02:21:52.939Z,101042.03
2023-11-08T02:24:25.211Z,101033.56
2023-11-08T02:26:57.048Z,101039.47
2023-11-08T02:29:23.584Z,101037.06
2023-11-08T02:31:54.913Z,101032.09
2023-11-08T02:34:21.648Z,101041.06
2023-11-08T02:36:50.149Z,101037.53
2023-11-08T02:39:21.660Z,101045.09
2023-11-08T02:41:49.254Z,101039.00
2023-11-08T02:44:19.819Z,101048.91
2023-11-08T02:46:46.334Z,101043.66
2023-11-08T02:49:12.877Z,101049.22
2023-11-08T02:51:39.917Z,101054.03
2023-11-08T02:54:09.437Z,101058.03
2023-11-08T02:56:41.343Z,101040.91
2023-11-08T02:59:09.416Z,101050.34
2023-11-08T03:01:40.913Z,101053.56
2023-11-08T03:04:12.747Z,101051.94
2023-11-08T03:06:43.156Z,101052.78
2023-11-08T03:09:09.705Z,101068.13
2023-11-08T03:11:39.170Z,101061.38
2023-11-08T03:14:08.177Z,101057.06
2023-11-08T03:16:39.957Z,101053.56
2023-11-08T03:19:11.022Z,101051.00
2023-11-08T03:21:38.615Z,101056.13
2023-11-08T03:24:07.689Z,101050.22
2023-11-08T03:26:34.463Z,101055.34
2023-11-08T03:29:03.332Z,101056.25
2023-11-08T03:31:32.462Z,101054.38
2023-11-08T03:33:59.889Z,101047.66
2023-11-08T03:36:27.365Z,101047.66
2023-11-08T03:38:56.193Z,101040.91
2023-11-08T03:41:26.241Z,101046.38
2023-11-08T03:43:53.448Z,101048.25
2023-11-08T03:46:19.943Z,101047.00
2023-11-08T03:48:47.984Z,101048.44
2023-11-08T03:51:14.631Z,101043.28
2023-11-08T03:53:41.132Z,101048.09
2023-11-08T03:56:07.729Z,101053.84
2023-11-08T03:58:34.255Z,101060.53
2023-11-08T04:01:00.837Z,101055.13
2023-11-08T04:03:27.538Z,101060.06
2023-11-08T04:05:55.428Z,101059.91
2023-11-08T04:08:24.351Z,101056.25
2023-11-08T04:10:51.419Z,101057.06
2023-11-08T04:13:20.928Z,101067.13
2023-11-08T04:15:47.643Z,101064.41
2023-11-08T04:18:16.497Z,101067.78
2023-11-08T04:20:48.469Z,101067.78
2023-11-08T04:23:15.094Z,101057.38
2023-11-08T04:25:41.629Z,101065.22
2023-11-08T04:28:10.685Z,101066.81
2023-11-08T04:30:37.207Z,101066.66
2023-11-08T04:33:04.170Z,101071.75
2023-11-08T04:35:30.742Z,101082.00
2023-11-08T04:38:01.313Z,101077.69
2023-11-08T04:40:32.062Z,101077.84
2023-11-08T04:42:58.578Z,101082.31
2023-11-08T04:45:25.191Z,101081.66
2023-11-08T04:47:52.071Z,101077.69
2023-11-08T04:50:18.592Z,101079.91
2023-11-08T04:52:45.263Z,101073.50
2023-11-08T04:55:14.176Z,101074.75
2023-11-08T04:57:45.750Z,101074.44
2023-11-08T05:00:12.849Z,101074.25
2023-11-08T05:02:39.409Z,101065.28
2023-11-08T05:05:10.290Z,101079.19
2023-11-08T05:07:37.218Z,101071.81
2023-11-08T05:10:09.073Z,101078.53
2023-11-08T05:12:38.243Z,101077.09
2023-11-08T05:15:10.540Z,101078.84
2023-11-08T05:17:41.060Z,101089.09
2023-11-08T05:20:08.196Z,101087.63
2023-11-08T05:22:35.671Z,101082.66
2023-11-08T05:25:02.407Z,101087.16
2023-11-08T05:27:31.748Z,101088.25
2023-11-08T05:29:58.247Z,101104.38
2023-11-08T05:32:27.458Z,101093.22
2023-11-08T05:34:58.900Z,101094.16
2023-11-08T05:37:25.407Z,101101.97
2023-11-08T05:39:54.483Z,101105.34
2023-11-08T05:42:24.845Z,101109.66
2023-11-08T05:44:59.240Z,101105.50
2023-11-08T05:47:28.291Z,101110.59
2023-11-08T05:50:01.377Z,101110.59
2023-11-08T05:52:28.444Z,101101.78
2023-11-08T05:54:55.682Z,101109.13
2023-11-08T05:57:22.299Z,101097.75
2023-11-08T05:59:52.431Z,101093.88
2023-11-08T06:02:18.924Z,101084.91
2023-11-08T06:04:45.844Z,101101.53
2023-11-08T06:07:17.825Z,101098.31
2023-11-08T06:09:46.698Z,101105.97
2023-11-08T06:12:13.241Z,101112.84
2023-11-08T06:14:40.088Z,101106.13
2023-11-08T06:17:07.690Z,101109.81
2023-11-08T06:19:36.855Z,101109.94
2023-11-08T06:22:06.029Z,101104.03
2023-11-08T06:24:32.704Z,101113.28
2023-11-08T06:27:01.779Z,101100.50
2023-11-08T06:29:28.662Z,101104.97
2023-11-08T06:31:57.564Z,101103.38
2023-11-08T06:34:25.426Z,101103.53
2023-11-08T06:36:54.029Z,101106.38
2023-11-08T06:39:20.532Z,101107.34
2023-11-08T06:41:49.305Z,101106.69
2023-11-08T06:44:18.280Z,101110.34
2023-11-08T06:46:47.028Z,101099.50
2023-11-08T06:49:16.132Z,101104.59
2023-11-08T06:51:42.713Z,101104.88
2023-11-08T06:54:11.898Z,101105.16
2023-11-08T06:56:38.461Z,101112.03
2023-11-08T06:59:05.265Z,101119.56
2023-11-08T07:01:36.691Z,101127.06
2023-11-08T07:04:06.348Z,101116.84
2023-11-08T07:06:33.239Z,101114.13
2023-11-08T07:09:02.420Z,101115.75
2023-11-08T07:11:29.015Z,101114.94
2023-11-08T07:13:56.171Z,101120.03
2023-11-08T07:16:22.739Z,101110.63
2023-11-08T07:18:49.448Z,101113.84
2023-11-08T07:21:20.013Z,101121.38
2023-11-08T07:23:46.909Z,101116.88
2023-11-08T07:26:17.375Z,101122.66
2023-11-08T07:28:45.629Z,101124.91
2023-11-08T07:31:13.025Z,101116.16
2023-11-08T07:33:39.663Z,101122.25
2023-11-08T07:36:06.929Z,101121.66
2023-11-08T07:38:33.958Z,101116.72
2023-11-08T07:41:02.710Z,101122.19
2023-11-08T07:43:40.244Z,101117.75
2023-11-08T07:46:12.581Z,101126.28
2023-11-08T07:48:41.979Z,101117.44
2023-11-08T07:51:09.487Z,101121.50
2023-11-08T07:53:36.645Z,101113.03
2023-11-08T07:56:06.852Z,101116.13
2023-11-08T07:58:33.488Z,101121.72
2023-11-08T08:01:00.136Z,101115.81
2023-11-08T08:03:31.291Z,101127.47
2023-11-08T08:05:58.837Z,101131.00
2023-11-08T08:08:26.313Z,101138.19
2023-11-08T08:10:52.810Z,101132.13
2023-11-08T08:13:32.713Z,101123.00
2023-11-08T08:15:59.916Z,101136.78
2023-11-08T08:18:26.656Z,101120.00
2023-11-08T08:20:55.572Z,101124.31
2023-11-08T08:23:24.367Z,101128.16
2023-11-08T08:25:52.290Z,101135.69
2023-11-08T08:28:19.648Z,101134.69
2023-11-08T08:30:46.214Z,101131.19
2023-11-08T08:33:12.988Z,101136.75
2023-11-08T08:35:44.266Z,101136.41
2023-11-08T08:38:13.089Z,101130.63
2023-11-08T08:40:39.753Z,101135.06
2023-11-08T08:43:06.528Z,101134.16
2023-11-08T08:45:35.464Z,101135.22
2023-11-08T08:48:05.618Z,101140.78
2023-11-08T08:50:34.591Z,101129.75
2023-11-08T08:53:04.544Z,101127.16
2023-11-08T08:55:33.744Z,101131.31
2023-11-08T08:58:00.349Z,101120.28
2023-11-08T09:00:27.020Z,101128.16
2023-11-08T09:02:58.152Z,101123.06
2023-11-08T09:05:30.620Z,101127.66
2023-11-08T09:07:59.484Z,101127.81
2023-11-08T09:10:28.362Z,101125.91
2023-11-08T09:12:54.913Z,101128.59
2023-11-08T09:15:21.474Z,101128.22
2023-11-08T09:17:48.073Z,101127.88
2023-11-08T09:20:14.829Z,101122.38
2023-11-08T09:22:45.166Z,101122.56
2023-11-08T09:25:11.838Z,101122.78
2023-11-08T09:27:41.416Z,101125.56
2023-11-08T09:30:10.690Z,101121.47
2023-11-08T09:32:39.766Z,101123.88
2023-11-08T09:35:07.428Z,101126.34
2023-11-08T09:37:34.131Z,101132.53
2023-11-08T09:40:05.644Z,101117.28
2023-11-08T09:42:33.615Z,101126.66
2023-11-08T09:45:01.589Z,101121.56
2023-11-08T09:47:28.499Z,101121.84
2023-11-08T09:50:01.929Z,101122.50
2023-11-08T09:52:28.581Z,101112.56
2023-11-08T09:55:00.062Z,101112.22
2023-11-08T09:57:30.083Z,101113.81
2023-11-08T09:59:59.375Z,101112.38
2023-11-08T10:02:31.214Z,101113.13
2023-11-08T10:05:04.985Z,101112.25
2023-11-08T10:07:34.599Z,101108.47
2023-11-08T10:10:04.407Z,101104.97
2023-11-08T10:12:33.885Z,101124.06
2023-11-08T10:15:08.335Z,101116.56
2023-11-08T10:19:31.265Z,101100.38
2023-11-08T10:20:35.514Z,101095.22
2023-11-08T10:23:03.304Z,101090.56
2023-11-08T10:25:32.944Z,101085.53
2023-11-08T10:28:07.573Z,101083.63
2023-11-08T10:30:40.474Z,101083.78
2023-11-08T10:33:11.328Z,101075.91
2023-11-08T10:35:43.581Z,101074.94
2023-11-08T10:38:15.752Z,101068.91
2023-11-08T10:40:46.046Z,101077.09
2023-11-08T10:43:12.527Z,101075.66
2023-11-08T10:45:39.236Z,101070.69
2023-11-08T10:48:09.930Z,101059.28
2023-11-08T10:50:37.298Z,101058.78
2023-11-08T10:53:06.346Z,101058.41
2023-11-08T10:55:32.894Z,101052.22
2023-11-08T10:58:05.503Z,101042.50
2023-11-08T11:00:36.393Z,101044.41
2023-11-08T11:03:10.162Z,101030.75
2023-11-08T11:05:38.457Z,101033.25
2023-11-08T11:08:08.353Z,101032.47
2023-11-08T11:10:34.919Z,101034.63
2023-11-08T11:13:10.576Z,101026.66
2023-11-08T11:16:00.041Z,101025.50
2023-11-08T11:18:43.606Z,101017.69
2023-11-08T11:21:20.982Z,101014.94
2023-11-08T11:23:49.928Z,101019.75
2023-11-08T11:26:47.201Z,101014.66
2023-11-08T11:29:18.180Z,101011.69
2023-11-08T11:31:44.985Z,101013.53
2023-11-08T11:34:20.823Z,101013.47
2023-11-08T11:37:02.666Z,101008.72
2023-11-08T11:39:33.119Z,101002.44
2023-11-08T11:42:02.549Z,100999.50
2023-11-08T11:44:48.471Z,101002.06
2023-11-08T11:47:18.413Z,100995.97
2023-11-08T11:49:47.626Z,100997.63
2023-11-08T11:52:19.811Z,100996.22
2023-11-08T11:54:50.205Z,100981.88
2023-11-08T11:57:20.474Z,100980.09
2023-11-08T11:59:53.815Z,100977.59
2023-11-08T12:02:20.753Z,100973.19
2023-11-08T12:04:53.027Z,100984.50
2023-11-08T12:07:20.161Z,100980.06
2023-11-08T12:09:54.201Z,100977.84
2023-11-08T12:12:26.984Z,100978.16
2023-11-08T12:14:58.781Z,100973.69
2023-11-08T12:17:27.794Z,100976.34
2023-11-08T12:19:57.789Z,100973.78
2023-11-08T12:22:24.421Z,100967.66
2023-11-08T12:24:59.487Z,100978.56
2023-11-08T12:27:26.052Z,100964.66
2023-11-08T12:29:55.638Z,100961.44
2023-11-08T12:32:22.208Z,100954.72
2023-11-08T12:34:51.141Z,100960.66
2023-11-08T12:37:23.497Z,100957.09
2023-11-08T12:39:50.058Z,100951.00
2023-11-08T12:42:17.019Z,100954.53
2023-11-08T12:44:48.260Z,100946.84
2023-11-08T12:47:17.602Z,100933.56
2023-11-08T12:49:45.447Z,100942.22
2023-11-08T12:52:17.846Z,100935.97
2023-11-08T12:54:45.091Z,100933.19
2023-11-08T12:57:26.932Z,100935.16
2023-11-08T12:59:53.490Z,100926.81
2023-11-08T13:02:21.529Z,100919.66
2023-11-08T13:04:49.183Z,100921.97
2023-11-08T13:07:16.085Z,100927.25
2023-11-08T13:09:45.363Z,100915.75
2023-11-08T13:12:19.103Z,100921.41
2023-11-08T13:14:49.115Z,100908.13
2023-11-08T13:17:15.644Z,100898.66
2023-11-08T13:19:42.328Z,100896.44
2023-11-08T13:22:09.163Z,100887.97
2023-11-08T13:24:38.067Z,100888.28
2023-11-08T13:27:07.806Z,100880.78
2023-11-08T13:29:35.248Z,100867.44
2023-11-08T13:32:04.702Z,100863.88
2023-11-08T13:34:31.465Z,100857.59
2023-11-08T13:37:00.162Z,100850.69
2023-11-08T13:39:29.251Z,100843.44
2023-11-08T13:41:55.947Z,100845.19
2023-11-08T13:44:26.866Z,100828.38
2023-11-08T13:46:53.380Z,100823.41
2023-11-08T13:49:19.920Z,100812.69
2023-11-08T13:51:46.491Z,100809.72
2023-11-08T13:54:15.817Z,100807.50
2023-11-08T13:56:46.174Z,100803.34
2023-11-08T13:59:12.751Z,100797.22
2023-11-08T14:01:39.222Z,100801.75
2023-11-08T14:04:06.018Z,100797.59
2023-11-08T14:06:35.763Z,100789.44
2023-11-08T14:09:05.556Z,100786.41
2023-11-08T14:11:32.204Z,100786.78
2023-11-08T14:13:58.751Z,100775.88
2023-11-08T14:16:30.320Z,100773.69
2023-11-08T14:18:58.899Z,100766.00
2023-11-08T14:21:30.271Z,100765.19
2023-11-08T14:23:59.182Z,100757.94
2023-11-08T14:26:26.834Z,100754.75
2023-11-08T14:28:55.996Z,100748.22
2023-11-08T14:31:27.826Z,100737.50
2023-11-08T14:33:56.802Z,100733.16
2023-11-08T14:36:25.611Z,100725.47
2023-11-08T14:38:54.220Z,100718.56
2023-11-08T14:41:20.942Z,100711.84
2023-11-08T14:43:47.469Z,100714.22
2023-11-08T14:46:16.436Z,100712.84
2023-11-08T14:48:43.219Z,100707.88
2023-11-08T14:51:12.613Z,100711.06
2023-11-08T14:53:41.502Z,100715.56
2023-11-08T14:56:09.469Z,100714.94
2023-11-08T14:58:36.203Z,100706.66
2023-11-08T15:01:05.426Z,100709.56
2023-11-08T15:03:34.660Z,100699.47
2023-11-08T15:06:01.415Z,100702.38
2023-11-08T15:09:50.197Z,100700.19
2023-11-08T15:11:14.957Z,100699.91
2023-11-08T15:13:44.667Z,100686.19
2023-11-08T15:16:11.267Z,100692.03
2023-11-08T15:18:42.932Z,100688.59
2023-11-08T15:21:09.689Z,100684.16
2023-11-08T15:23:36.771Z,100689.00
2023-11-08T15:26:05.959Z,100673.69
2023-11-08T15:28:32.643Z,100672.47
2023-11-08T15:31:01.771Z,100663.72
2023-11-08T15:33:28.283Z,100653.19
2023-11-08T15:35:54.858Z,100654.97
2023-11-08T15:38:23.858Z,100654.31
2023-11-08T15:40:52.873Z,100642.47
2023-11-08T15:43:25.102Z,100643.28
2023-11-08T15:45:54.844Z,100637.38
2023-11-08T15:48:26.466Z,100645.03
2023-11-08T15:50:55.483Z,100636.56
2023-11-08T15:53:22.057Z,100632.41
2023-11-08T15:55:51.072Z,100626.50
2023-11-08T15:58:17.672Z,100628.09
2023-11-08T16:00:47.821Z,100622.97
2023-11-08T16:03:14.800Z,100624.72
2023-11-08T16:05:41.801Z,100619.78
2023-11-08T16:08:09.621Z,100614.81
2023-11-08T16:10:36.395Z,100605.72
2023-11-08T16:13:05.835Z,100611.84
2023-11-08T16:15:37.166Z,100606.72
2023-11-08T16:18:04.067Z,100591.50
2023-11-08T16:20:31.808Z,100591.69
2023-11-08T16:22:58.342Z,100601.31
2023-11-08T16:25:27.676Z,100595.72
2023-11-08T16:27:57.764Z,100598.28
2023-11-08T16:30:59.506Z,100593.34
2023-11-08T16:33:13.959Z,100590.94
2023-11-08T16:35:40.587Z,100589.34
2023-11-08T16:38:09.865Z,100587.59
2023-11-08T16:40:36.547Z,100585.22
2023-11-08T16:43:05.676Z,100579.13
2023-11-08T16:45:32.215Z,100577.34
2023-11-08T16:47:59.672Z,100582.47
2023-11-08T16:50:26.618Z,100578.13
2023-11-08T16:52:55.561Z,100570.47
2023-11-08T16:55:22.218Z,100573.03
2023-11-08T16:57:50.428Z,100571.28
2023-11-08T17:00:22.776Z,100572.06
2023-11-08T17:02:54.607Z,100572.88
2023-11-08T17:05:23.568Z,100572.88
2023-11-08T17:07:52.464Z,100577.81
2023-11-08T17:10:19.897Z,100575.84
2023-11-08T17:12:46.541Z,100568.97
2023-11-08T17:15:16.128Z,100573.75
2023-11-08T17:17:45.053Z,100571.00
2023-11-08T17:20:12.249Z,100561.56
2023-11-08T17:22:38.822Z,100561.41
2023-11-08T17:25:05.754Z,100561.41
2023-11-08T17:27:37.577Z,100564.56
2023-11-08T17:30:05.793Z,100556.69
2023-11-08T17:32:33.809Z,100551.41
2023-11-08T17:35:05.111Z,100552.03
2023-11-08T17:37:33.089Z,100549.47
2023-11-08T17:40:00.428Z,100554.41
2023-11-08T17:42:27.507Z,100542.38
2023-11-08T17:44:54.269Z,100543.81
2023-11-08T17:47:20.953Z,100546.38
2023-11-08T17:49:49.862Z,100538.69
2023-11-08T17:52:18.990Z,100531.81
2023-11-08T17:54:45.837Z,100535.94
2023-11-08T17:57:15.213Z,100536.75
2023-11-08T17:59:47.061Z,100533.19
2023-11-08T18:02:13.596Z,100533.19
2023-11-08T18:04:43.559Z,100524.56
2023-11-08T18:07:10.123Z,100526.16
2023-11-08T18:09:36.683Z,100518.28
2023-11-08T18:12:03.345Z,100511.38
2023-11-08T18:14:33.569Z,100518.09
2023-11-08T18:17:04.789Z,100517.16
2023-11-08T18:19:31.717Z,100504.34
2023-11-08T18:21:58.606Z,100507.50
2023-11-08T18:24:25.832Z,100511.66
2023-11-08T18:26:55.147Z,100502.19
2023-11-08T18:29:23.027Z,100501.22
2023-11-08T18:31:52.225Z,100507.94
2023-11-08T18:34:18.911Z,100495.75
2023-11-08T18:36:47.969Z,100495.38
2023-11-08T18:39:19.405Z,100488.50
2023-11-08T18:41:45.940Z,100485.94
2023-11-08T18:44:12.620Z,100484.78
2023-11-08T18:46:41.480Z,100488.13
2023-11-08T18:49:13.082Z,100484.44
2023-11-08T18:51:44.667Z,100483.44
2023-11-08T18:54:11.629Z,100490.94
2023-11-08T18:56:38.696Z,100479.72
2023-11-08T18:59:07.573Z,100472.03
2023-11-08T19:01:36.970Z,100480.50
2023-11-08T19:04:06.995Z,100477.78
2023-11-08T19:06:33.850Z,100462.41
2023-11-08T19:09:02.774Z,100462.22
2023-11-08T19:11:31.816Z,100461.25
2023-11-08T19:13:58.299Z,100462.81
2023-11-08T19:16:25.645Z,100458.31
2023-11-08T19:18:54.516Z,100464.25
2023-11-08T19:21:24.167Z,100451.41
2023-11-08T19:23:52.425Z,100454.00
2023-11-08T19:26:19.149Z,100453.00
2023-11-08T19:28:49.018Z,100445.91
2023-11-08T19:31:17.942Z,100446.72
2023-11-08T19:33:47.071Z,100449.13
2023-11-08T19:36:16.199Z,100451.50
2023-11-08T19:38:45.368Z,100443.00
2023-11-08T19:41:11.972Z,100440.25
2023-11-08T19:43:40.880Z,100435.75
2023-11-08T19:46:11.416Z,100440.69
2023-11-08T19:48:38.285Z,100448.19
2023-11-08T19:51:05.290Z,100435.19
2023-11-08T19:53:31.876Z,100435.97
2023-11-08T19:56:06.885Z,100435.81
2023-11-08T19:58:33.720Z,100424.75
2023-11-08T20:01:00.571Z,100428.91
2023-11-08T20:03:27.198Z,100416.09
2023-11-08T20:05:55.903Z,100422.00
2023-11-08T20:08:27.701Z,100422.59
2023-11-08T20:10:59.095Z,100422.44
2023-11-08T20:13:28.099Z,100420.66
2023-11-08T20:15:56.956Z,100412.00
2023-11-08T20:18:23.831Z,100406.88
2023-11-08T20:20:51.680Z,100408.44
2023-11-08T20:23:18.694Z,100400.75
2023-11-08T20:25:45.257Z,100408.25
2023-11-08T20:28:11.878Z,100397.22
2023-11-08T20:30:38.542Z,100398.78
2023-11-08T20:33:06.850Z,100397.84
2023-11-08T20:35:33.784Z,100398.63
2023-11-08T20:38:00.370Z,100384.81
2023-11-08T20:40:29.218Z,100383.03
2023-11-08T20:42:58.265Z,100380.28
2023-11-08T20:45:27.685Z,100379.31
2023-11-08T20:47:54.257Z,100380.91
2023-11-08T20:50:23.023Z,100374.00
2023-11-08T20:52:52.561Z,100366.31
2023-11-08T20:55:19.597Z,100372.03
2023-11-08T20:57:46.237Z,100368.69
2023-11-08T21:00:13.936Z,100364.97
2023-11-08T21:02:43.724Z,100353.09
2023-11-08T21:05:13.546Z,100349.59
2023-11-08T21:07:41.164Z,100347.03
2023-11-08T21:10:09.493Z,100343.47
2023-11-08T21:12:39.453Z,100341.69
2023-11-08T21:15:09.259Z,100337.34
2023-11-08T21:17:39.237Z,100327.88
2023-11-08T21:20:10.444Z,100334.41
2023-11-08T21:22:37.956Z,100328.31
2023-11-08T21:25:07.661Z,100332.66
2023-11-08T21:27:38.762Z,100323.19
2023-11-08T21:30:13.504Z,100318.66
2023-11-08T21:32:40.449Z,100323.59
2023-11-08T21:35:07.423Z,100310.75
2023-11-08T21:37:36.478Z,100303.84
2023-11-08T21:40:07.639Z,100314.91
2023-11-08T21:42:34.175Z,100301.91
2023-11-08T21:45:04.819Z,100299.16
2023-11-08T21:47:31.545Z,100302.50
2023-11-08T21:50:04.359Z,100299.94
2023-11-08T21:52:31.069Z,100291.44
2023-11-08T21:55:02.407Z,100295.59
2023-11-08T21:57:28.936Z,100290.31
2023-11-08T21:59:55.410Z,100285.16
2023-11-08T22:02:22.170Z,100279.84
2023-11-08T22:04:48.766Z,100268.78
2023-11-08T22:07:17.606Z,100276.47
2023-11-08T22:09:49.113Z,100272.94
2023-11-08T22:12:15.841Z,100266.03
2023-11-08T22:14:42.353Z,100262.47
2023-11-08T22:17:11.238Z,100263.25
2023-11-08T22:19:37.831Z,100262.28
2023-11-08T22:22:04.592Z,100252.81
2023-11-08T22:24:34.039Z,100248.50
2023-11-08T22:27:04.539Z,100247.88
2023-11-08T22:29:31.064Z,100254.00
2023-11-08T22:31:59.879Z,100245.50
2023-11-08T22:34:28.925Z,100242.72
2023-11-08T22:36:55.508Z,100240.38
2023-11-08T22:39:24.288Z,100248.66
2023-11-08T22:41:54.003Z,100233.25
2023-11-08T22:44:23.000Z,100231.47
2023-11-08T22:46:55.537Z,100242.72
2023-11-08T22:49:22.108Z,100235.66
2023-11-08T22:51:48.826Z,100233.09
2023-11-08T22:54:15.537Z,100220.25
2023-11-08T22:56:44.672Z,100221.06
2023-11-08T22:59:13.469Z,100223.41
2023-11-08T23:01:42.232Z,100218.50
2023-11-08T23:04:11.399Z,100210.00
2023-11-08T23:06:40.459Z,100222.63
2023-11-08T23:09:09.350Z,100213.34
2023-11-08T23:11:38.119Z,100210.78
2023-11-08T23:14:08.477Z,100207.44
2023-11-08T23:16:41.003Z,100208.22
2023-11-08T23:19:10.306Z,100196.97
2023-11-08T23:21:36.830Z,100203.88
2023-11-08T23:24:05.705Z,100191.06
2023-11-08T23:26:32.262Z,100191.84
2023-11-08T23:29:01.569Z,100184.16
2023-11-08T23:31:28.088Z,100182.38
2023-11-08T23:33:59.568Z,100169.53
2023-11-08T23:36:28.522Z,100168.56
2023-11-08T23:38:55.194Z,100166.97
2023-11-08T23:41:24.469Z,100169.34
2023-11-08T23:43:55.644Z,100168.56
2023-11-08T23:46:24.823Z,100163.03
2023-11-08T23:48:52.072Z,100164.03
2023-11-08T23:51:21.143Z,100161.47
2023-11-08T23:53:50.018Z,100165.00
2023-11-08T23:56:19.142Z,100165.00
2023-11-08T23:58:46.300Z,100161.63
